Time;durP1;ratioP1;P1;durP2;ratioP2;P2;SDS_P1;SDS_P2;PMS_P1;PMS_P2;Temp;Humidity;BMP_temperature;BMP_pressure;BME280_temperature;BME280_humidity;BME280_pressure;Samples;Min_cycle;Max_cycle;Signal;HPM_P1;HPM_P2
2022/04/29 00:00:46;;;;;;;5.07;2.47;;;;;;;8.50;66.12;101979.22;5058746;28;20216;-81
2022/04/29 00:03:14;;;;;;;5.70;2.57;;;;;;;8.11;68.75;101923.13;5058505;28;20730;-82
2022/04/29 00:05:43;;;;;;;5.17;3.40;;;;;;;7.85;70.99;101835.22;5058865;28;20626;-82
2022/04/29 00:08:11;;;;;;;4.63;3.13;;;;;;;7.88;72.12;101783.25;5061802;28;20199;-82
2022/04/29 00:10:38;;;;;;;5.00;3.20;;;;;;;7.91;72.86;101761.63;5058656;28;20682;-82
2022/04/29 00:13:07;;;;;;;4.63;3.00;;;;;;;8.05;72.01;101765.28;5057708;28;20619;-81
2022/04/29 00:15:35;;;;;;;5.40;3.10;;;;;;;8.12;72.74;101761.88;5059491;28;20267;-82
2022/04/29 00:18:01;;;;;;;9.27;3.83;;;;;;;8.15;72.79;101771.47;5058982;28;20212;-83
2022/04/29 00:20:27;;;;;;;6.50;4.47;;;;;;;8.16;71.74;101765.41;5058487;28;20687;-82
2022/04/29 00:22:54;;;;;;;3.30;3.03;;;;;;;8.11;72.23;101767.97;5058828;28;20209;-81
2022/04/29 00:25:20;;;;;;;4.23;3.40;;;;;;;8.05;73.63;101746.22;5059116;28;20236;-81
2022/04/29 00:27:47;;;;;;;6.40;3.50;;;;;;;7.96;73.60;101731.34;5039359;28;20209;-81
2022/04/29 00:30:14;;;;;;;4.43;3.23;;;;;;;7.98;73.80;101726.19;5038550;28;20272;-82
2022/04/29 00:32:42;;;;;;;3.83;3.40;;;;;;;7.92;73.27;101724.38;5039510;28;20285;-82
2022/04/29 00:35:09;;;;;;;5.43;3.30;;;;;;;7.79;73.84;101727.66;5039748;28;20207;-81
2022/04/29 00:37:43;;;;;;;5.57;3.03;;;;;;;7.70;74.04;101716.28;5038508;28;20209;-81
2022/04/29 00:40:13;;;;;;;4.97;3.13;;;;;;;7.78;74.44;101707.72;5038221;28;20323;-81
2022/04/29 00:42:40;;;;;;;6.20;3.40;;;;;;;7.59;74.08;101717.88;5039054;28;20687;-82
2022/04/29 00:45:07;;;;;;;5.40;3.27;;;;;;;7.34;74.72;101704.53;5045125;28;20224;-82
2022/04/29 00:47:33;;;;;;;5.47;3.70;;;;;;;7.26;75.27;101694.88;5058850;28;20515;-82
2022/04/29 00:50:01;;;;;;;5.17;2.93;;;;;;;7.09;74.75;101690.28;5058177;28;20251;-82
2022/04/29 00:52:30;;;;;;;10.90;3.50;;;;;;;7.14;76.46;101651.44;5060127;28;20211;-83
2022/04/29 00:55:00;;;;;;;6.27;3.70;;;;;;;7.12;77.18;101632.38;5058527;28;20221;-83
2022/04/29 00:57:31;;;;;;;3.73;3.37;;;;;;;7.18;77.57;101619.47;5059720;28;20662;-82
2022/04/29 01:00:02;;;;;;;3.83;3.20;;;;;;;7.18;76.60;101622.06;5059198;28;20224;-82
2022/04/29 01:02:30;;;;;;;4.00;2.70;;;;;;;7.14;77.00;101621.13;5059415;28;20212;-83
2022/04/29 01:05:03;;;;;;;6.37;3.00;;;;;;;7.19;76.25;101626.38;5060013;28;20286;-82
2022/04/29 01:07:30;;;;;;;5.40;3.03;;;;;;;7.25;76.45;101636.84;5059659;28;20208;-83
2022/04/29 01:09:56;;;;;;;4.60;3.23;;;;;;;7.29;75.02;101648.16;5057702;28;20724;-83
2022/04/29 01:12:24;;;;;;;5.43;3.40;;;;;;;7.20;75.06;101663.63;5058227;28;20203;-83
2022/04/29 01:14:53;;;;;;;6.73;3.27;;;;;;;7.16;75.37;101679.16;5059559;28;20203;-82
2022/04/29 01:17:19;;;;;;;4.90;2.90;;;;;;;7.20;75.16;101669.69;5058633;28;20254;-82
2022/04/29 01:19:46;;;;;;;3.83;2.90;;;;;;;7.32;74.63;101682.84;5058233;28;20292;-82
2022/04/29 01:22:14;;;;;;;3.67;3.03;;;;;;;7.33;74.56;101688.91;5058710;28;20209;-82
2022/04/29 01:24:40;;;;;;;5.17;3.10;;;;;;;7.29;74.25;101698.38;5058222;28;20634;-82
2022/04/29 01:27:10;;;;;;;5.00;3.40;;;;;;;7.18;75.21;101676.59;5058367;28;20218;-82
2022/04/29 01:29:38;;;;;;;4.50;3.40;;;;;;;7.24;74.28;101670.63;5057802;28;20232;-82
2022/04/29 01:32:05;;;;;;;4.30;3.30;;;;;;;7.20;74.29;101668.84;5057896;28;20219;-82
2022/04/29 01:34:31;;;;;;;3.10;2.80;;;;;;;7.13;74.36;101683.44;5058007;28;20261;-82
2022/04/29 01:36:58;;;;;;;3.23;2.93;;;;;;;7.11;74.57;101670.41;5058021;28;20243;-80
2022/04/29 01:39:25;;;;;;;5.50;3.50;;;;;;;6.86;75.18;101657.94;5057268;28;20290;-83
2022/04/29 01:41:52;;;;;;;7.87;4.33;;;;;;;6.63;76.43;101636.78;5058008;28;20281;-82
2022/04/29 01:44:18;;;;;;;4.53;3.17;;;;;;;6.53;76.65;101620.19;5057221;28;20228;-82
2022/04/29 01:46:46;;;;;;;7.40;3.63;;;;;;;6.26;77.69;101589.47;5057741;28;20591;-83
2022/04/29 01:49:13;;;;;;;4.53;3.77;;;;;;;6.33;78.12;101571.44;5057441;28;20254;-83
2022/04/29 01:51:39;;;;;;;5.90;4.03;;;;;;;6.36;77.69;101566.34;5058532;28;20230;-83
2022/04/29 01:54:10;;;;;;;5.40;3.53;;;;;;;6.43;78.02;101543.94;5057253;28;20202;-81
2022/04/29 01:56:38;;;;;;;10.30;4.67;;;;;;;6.30;78.29;101557.56;5057745;28;20265;-82
2022/04/29 01:59:05;;;;;;;5.57;4.57;;;;;;;6.23;78.95;101547.94;5057671;28;20235;-82
2022/04/29 02:01:32;;;;;;;5.63;3.73;;;;;;;6.22;78.76;101539.28;5058172;28;20207;-82
2022/04/29 02:03:59;;;;;;;6.23;3.37;;;;;;;6.42;78.69;101533.53;5058107;28;20226;-82
2022/04/29 02:06:26;;;;;;;6.80;4.10;;;;;;;6.53;78.51;101521.63;5061744;28;20213;-79
2022/04/29 02:08:53;;;;;;;6.67;3.60;;;;;;;6.66;78.40;101535.63;5067236;28;20298;-80
2022/04/29 02:11:20;;;;;;;5.10;3.67;;;;;;;6.79;77.39;101552.28;5066344;28;20211;-81
2022/04/29 02:13:48;;;;;;;4.57;3.60;;;;;;;6.82;77.11;101566.19;5067132;28;20708;-80
2022/04/29 02:16:15;;;;;;;6.27;3.77;;;;;;;6.84;77.02;101572.25;5066893;28;20215;-79
2022/04/29 02:18:42;;;;;;;5.07;4.00;;;;;;;6.75;77.30;101582.50;5066423;28;20250;-79
2022/04/29 02:21:08;;;;;;;3.80;3.47;;;;;;;6.63;77.66;101570.19;5066784;28;20224;-79
2022/04/29 02:23:35;;;;;;;4.13;3.50;;;;;;;6.48;78.41;101551.78;5061256;28;20227;-83
2022/04/29 02:26:01;;;;;;;5.63;4.10;;;;;;;6.32;78.83;101538.59;5063536;28;20231;-82
2022/04/29 02:28:28;;;;;;;7.50;4.23;;;;;;;6.47;78.92;101522.41;5065121;28;20291;-82
2022/04/29 02:30:56;;;;;;;6.63;4.03;;;;;;;6.44;78.22;101524.06;5060673;28;20274;-82
2022/04/29 02:33:22;;;;;;;9.70;4.20;;;;;;;6.51;78.79;101518.13;5065046;28;20257;-81
2022/04/29 02:35:49;;;;;;;4.03;3.50;;;;;;;6.60;78.89;101520.88;5065211;28;20639;-82
2022/04/29 02:38:15;;;;;;;5.33;3.70;;;;;;;6.72;78.51;101523.66;5064223;28;20201;-82
2022/04/29 02:40:41;;;;;;;4.83;3.67;;;;;;;6.78;78.49;101529.75;5064191;28;20214;-81
2022/04/29 02:43:08;;;;;;;7.00;3.70;;;;;;;6.85;78.10;101544.56;5063889;28;20212;-83
2022/04/29 02:45:34;;;;;;;7.40;4.13;;;;;;;6.84;77.07;101556.69;5056439;28;20227;-79
2022/04/29 02:48:03;;;;;;;10.30;4.87;;;;;;;6.64;77.25;101568.47;5055790;28;20774;-82
2022/04/29 02:50:30;;;;;;;6.30;4.20;;;;;;;6.51;78.28;101546.66;5054794;28;20264;-82
2022/04/29 02:52:57;;;;;;;4.83;3.80;;;;;;;6.29;79.17;101527.31;5055399;28;20200;-81
2022/04/29 02:55:23;;;;;;;6.73;4.37;;;;;;;6.09;80.39;101494.16;5055287;28;20575;-82
2022/04/29 02:57:50;;;;;;;7.57;5.00;;;;;;;5.90;81.53;101464.41;5056078;28;20257;-81
2022/04/29 03:00:16;;;;;;;8.47;4.70;;;;;;;5.88;81.51;101431.56;5055011;28;20716;-82
2022/04/29 03:02:43;;;;;;;8.27;4.33;;;;;;;5.81;82.16;101420.22;5056423;28;20203;-82
2022/04/29 03:05:10;;;;;;;5.10;4.60;;;;;;;5.75;82.38;101414.97;5056009;28;20774;-82
2022/04/29 03:07:37;;;;;;;9.70;4.77;;;;;;;5.72;83.00;101383.81;5055686;28;20213;-81
2022/04/29 03:10:04;;;;;;;6.43;4.97;;;;;;;5.67;83.45;101370.78;5055553;28;20723;-82
2022/04/29 03:12:31;;;;;;;6.20;4.37;;;;;;;5.84;83.69;101363.25;5055359;28;20217;-82
2022/04/29 03:15:15;;;;;;;7.43;4.77;;;;;;;5.84;83.36;101365.84;5056263;28;20199;-82
2022/04/29 03:20:27;;;;;;;7.50;5.43;;;;;;;6.15;82.61;101387.09;5055405;28;20485;-82
2022/04/29 03:22:53;;;;;;;9.63;5.03;;;;;;;6.21;82.35;101404.47;5055844;28;20216;-82
2022/04/29 03:25:19;;;;;;;4.77;4.37;;;;;;;6.29;81.41;101410.63;5055678;28;20294;-82
2022/04/29 03:27:46;;;;;;;10.47;5.27;;;;;;;6.35;80.95;101423.69;5056393;28;20202;-82
2022/04/29 03:30:14;;;;;;;6.03;4.77;;;;;;;6.39;80.97;101429.78;5055262;28;20232;-81
2022/04/29 03:32:40;;;;;;;6.80;5.00;;;;;;;6.35;80.92;101424.53;5055843;28;20209;-82
2022/04/29 03:35:07;;;;;;;8.57;4.87;;;;;;;6.41;81.41;101430.69;5055971;28;20656;-82
2022/04/29 03:37:34;;;;;;;12.40;5.10;;;;;;;6.40;81.43;101431.50;5056297;28;20215;-82
2022/04/29 03:40:01;;;;;;;6.13;4.53;;;;;;;6.44;81.06;101435.88;5055428;28;20266;-81
2022/04/29 03:42:27;;;;;;;9.30;4.97;;;;;;;6.50;80.08;101447.25;5071820;22;20286;-81
2022/04/29 03:44:53;;;;;;;7.47;5.20;;;;;;;6.56;79.73;101460.28;5076170;28;20648;-84
2022/04/29 03:47:20;;;;;;;6.50;5.50;;;;;;;6.57;79.38;101462.03;5061121;28;20204;-83
2022/04/29 03:49:46;;;;;;;7.07;4.93;;;;;;;6.62;79.52;101464.69;5057224;28;20333;-83
2022/04/29 03:52:13;;;;;;;5.70;5.20;;;;;;;6.66;79.22;101463.88;5069148;28;20326;-83
2022/04/29 03:54:40;;;;;;;9.23;5.40;;;;;;;6.62;80.02;101469.88;5069443;28;20248;-83
2022/04/29 03:57:08;;;;;;;8.27;6.07;;;;;;;6.65;79.61;101469.91;5076961;28;20754;-84
2022/04/29 03:59:34;;;;;;;5.93;4.73;;;;;;;6.65;79.22;101479.44;5076727;28;20258;-84
2022/04/29 04:02:01;;;;;;;5.53;5.03;;;;;;;6.66;79.30;101481.16;5077843;28;20207;-84
2022/04/29 04:04:27;;;;;;;11.00;6.40;;;;;;;6.65;79.87;101485.47;5077874;28;20222;-83
2022/04/29 04:07:00;;;;;;;7.37;5.13;;;;;;;6.68;79.00;101480.34;5077623;28;20208;-85
2022/04/29 04:09:27;;;;;;;9.90;6.93;;;;;;;6.69;79.44;101481.22;5079727;28;20212;-84
2022/04/29 04:11:55;;;;;;;6.97;5.50;;;;;;;6.62;79.46;101480.28;5079841;28;20203;-84
2022/04/29 04:14:21;;;;;;;8.50;5.80;;;;;;;6.49;80.22;101467.97;5078422;28;20202;-83
2022/04/29 04:16:48;;;;;;;6.60;6.00;;;;;;;6.48;80.15;101461.03;5071986;28;20204;-85
2022/04/29 04:19:14;;;;;;;7.27;5.70;;;;;;;6.50;79.95;101456.72;5080507;28;20241;-85
2022/04/29 04:21:41;;;;;;;7.00;6.13;;;;;;;6.52;79.97;101463.69;5068354;28;20227;-84
2022/04/29 04:24:08;;;;;;;11.27;6.10;;;;;;;6.37;80.97;101447.91;5071158;28;20281;-84
2022/04/29 04:26:35;;;;;;;11.63;5.90;;;;;;;6.25;81.54;101433.03;5072551;28;20732;-84
2022/04/29 04:29:03;;;;;;;8.57;5.97;;;;;;;6.31;81.55;101424.47;5080081;28;20261;-83
2022/04/29 04:31:29;;;;;;;8.87;5.80;;;;;;;6.31;81.52;101421.88;5050911;28;20222;-82
2022/04/29 04:33:56;;;;;;;11.63;6.73;;;;;;;6.20;82.39;101407.88;5047299;28;20720;-84
2022/04/29 04:36:22;;;;;;;9.73;6.37;;;;;;;6.21;82.96;101392.38;5049303;28;20208;-80
2022/04/29 04:38:48;;;;;;;7.77;6.40;;;;;;;6.24;82.81;101382.03;5049764;28;20301;-83
2022/04/29 04:41:16;;;;;;;7.97;6.00;;;;;;;6.25;82.81;101390.69;5051396;28;20239;-82
2022/04/29 04:43:42;;;;;;;9.20;5.80;;;;;;;6.31;82.98;101402.00;5050520;28;20783;-83
2022/04/29 04:46:11;;;;;;;14.00;6.23;;;;;;;6.33;82.85;101402.91;5046968;28;20221;-83
2022/04/29 04:48:38;;;;;;;11.20;6.60;;;;;;;6.12;82.81;101408.63;5047133;28;20201;-81
2022/04/29 04:51:04;;;;;;;10.90;6.53;;;;;;;6.10;84.04;101389.59;5048984;28;20225;-83
2022/04/29 04:53:31;;;;;;;6.37;5.77;;;;;;;6.19;83.59;101373.31;5047702;28;20283;-82
2022/04/29 04:55:58;;;;;;;10.80;7.20;;;;;;;6.26;83.66;101390.69;5050227;28;20207;-83
2022/04/29 04:58:24;;;;;;;14.33;7.30;;;;;;;6.20;83.76;101394.94;5053091;28;20662;-84
2022/04/29 05:00:52;;;;;;;15.00;8.43;;;;;;;6.05;84.29;101383.50;5055242;28;20615;-81
2022/04/29 05:03:19;;;;;;;10.33;6.67;;;;;;;5.99;84.88;101370.44;5045384;28;20771;-80
2022/04/29 05:05:46;;;;;;;7.63;6.93;;;;;;;6.07;84.89;101355.00;5047162;28;20224;-81
2022/04/29 05:08:12;;;;;;;9.63;7.27;;;;;;;6.19;85.08;101354.31;5044473;28;20199;-80
2022/04/29 05:10:38;;;;;;;9.20;8.27;;;;;;;6.27;84.38;101366.53;5046118;28;20250;-80
2022/04/29 05:13:05;;;;;;;9.57;6.10;;;;;;;6.39;83.79;101368.41;5045055;28;20217;-80
2022/04/29 05:15:31;;;;;;;8.23;6.93;;;;;;;6.42;83.71;101385.72;5046637;28;20253;-82
2022/04/29 05:17:58;;;;;;;8.07;7.27;;;;;;;6.30;83.86;101389.91;5045359;28;20204;-81
2022/04/29 05:20:26;;;;;;;8.67;7.30;;;;;;;6.01;84.58;101384.31;5043035;28;20680;-82
2022/04/29 05:22:52;;;;;;;9.23;8.00;;;;;;;5.58;87.08;101350.78;5045297;28;20223;-81
2022/04/29 05:25:18;;;;;;;8.07;6.97;;;;;;;5.51;88.24;101299.75;5045692;28;20223;-81
2022/04/29 05:27:45;;;;;;;13.57;8.43;;;;;;;5.46;89.38;101272.03;5051022;28;20535;-82
2022/04/29 05:30:12;;;;;;;12.70;7.70;;;;;;;5.42;89.48;101250.41;5043216;28;20199;-82
2022/04/29 05:32:39;;;;;;;8.53;7.60;;;;;;;5.55;89.45;101246.28;5045297;28;20218;-82
2022/04/29 05:35:08;;;;;;;10.80;8.40;;;;;;;5.49;89.63;101261.72;5044067;28;20213;-83
2022/04/29 05:37:37;;;;;;;9.30;7.43;;;;;;;5.41;89.85;101250.38;5045362;28;20256;-82
2022/04/29 05:42:48;;;;;;;15.20;8.17;;;;;;;5.68;89.88;101237.81;5044196;28;20289;-80
2022/04/29 05:45:14;;;;;;;8.80;7.43;;;;;;;5.70;89.69;101251.66;5046617;28;20308;-78
2022/04/29 05:47:40;;;;;;;12.53;8.40;;;;;;;5.81;88.86;101269.06;5043522;28;20206;-83
2022/04/29 05:50:08;;;;;;;14.20;8.10;;;;;;;5.84;88.54;101287.28;5045392;28;20206;-82
2022/04/29 05:52:35;;;;;;;11.07;8.07;;;;;;;5.87;88.43;101301.16;5044528;28;20254;-82
2022/04/29 05:55:02;;;;;;;19.13;8.20;;;;;;;5.89;88.61;101294.25;5045795;28;20202;-82
2022/04/29 05:57:28;;;;;;;15.63;7.77;;;;;;;6.03;88.77;101289.31;5048063;28;20247;-81
2022/04/29 05:59:55;;;;;;;11.93;8.03;;;;;;;5.97;88.16;101297.84;5042554;28;20313;-80
2022/04/29 06:02:23;;;;;;;15.47;7.97;;;;;;;6.15;88.31;101304.16;5049270;28;20257;-81
2022/04/29 06:04:50;;;;;;;12.00;8.37;;;;;;;6.02;87.82;101321.25;5044927;28;20594;-80
2022/04/29 06:07:16;;;;;;;10.07;7.63;;;;;;;6.03;88.66;101304.00;5045169;28;20195;-81
2022/04/29 06:09:44;;;;;;;9.97;8.30;;;;;;;5.99;88.89;101292.72;5043448;28;20259;-81
2022/04/29 06:12:11;;;;;;;11.40;8.10;;;;;;;6.28;88.66;101284.41;5041717;28;20225;-83
2022/04/29 06:14:38;;;;;;;16.13;8.53;;;;;;;6.48;87.47;101308.88;5044232;28;20200;-83
2022/04/29 06:17:05;;;;;;;11.33;8.30;;;;;;;6.44;87.19;101329.56;5045060;28;20228;-82
2022/04/29 06:19:31;;;;;;;11.27;8.50;;;;;;;6.42;86.69;101339.03;5042580;28;20201;-83
2022/04/29 06:21:58;;;;;;;8.93;8.13;;;;;;;6.57;86.74;101326.28;5044848;28;20204;-82
2022/04/29 06:24:24;;;;;;;11.37;8.50;;;;;;;6.77;86.29;101339.47;5047254;28;20267;-82
2022/04/29 06:26:52;;;;;;;10.57;8.63;;;;;;;6.68;86.38;101357.50;5048979;28;20282;-84
2022/04/29 06:29:18;;;;;;;15.70;9.57;;;;;;;6.85;85.39;101360.31;5045274;28;20273;-81
2022/04/29 06:31:44;;;;;;;13.67;8.80;;;;;;;7.01;84.99;101379.53;5045490;28;20245;-85
2022/04/29 06:34:11;;;;;;;15.30;9.03;;;;;;;7.07;84.78;101393.44;5043603;28;20200;-82
2022/04/29 06:36:37;;;;;;;12.67;8.77;;;;;;;7.25;84.39;101399.69;5044614;28;20200;-83
2022/04/29 06:39:04;;;;;;;10.00;8.43;;;;;;;7.20;84.37;101411.75;5043819;28;20236;-83
2022/04/29 06:41:30;;;;;;;11.80;8.60;;;;;;;7.40;83.92;101433.59;5046200;28;20731;-84
2022/04/29 06:43:58;;;;;;;8.97;8.07;;;;;;;7.58;82.17;101468.41;5043972;28;20240;-82
2022/04/29 06:46:25;;;;;;;10.00;9.03;;;;;;;7.74;81.00;101504.09;5040202;28;20231;-83
2022/04/29 06:48:53;;;;;;;11.80;9.30;;;;;;;7.86;80.26;101532.78;5043486;28;20915;-83
2022/04/29 06:51:19;;;;;;;11.33;9.33;;;;;;;7.90;80.81;101525.91;5044960;28;20204;-82
2022/04/29 06:53:45;;;;;;;12.50;10.03;;;;;;;7.82;80.90;101518.03;5046364;28;20222;-83
2022/04/29 06:56:12;;;;;;;16.73;9.10;;;;;;;8.03;80.95;101519.09;5046998;28;20200;-81
2022/04/29 06:58:38;;;;;;;11.93;9.30;;;;;;;8.26;80.13;101522.75;5047773;28;20208;-81
2022/04/29 07:01:07;;;;;;;10.67;8.67;;;;;;;8.41;79.21;101563.66;5041983;28;20229;-83
2022/04/29 07:03:36;;;;;;;11.85;8.93;;;;;;;8.38;79.46;101580.94;5045324;28;20442;-84
2022/04/29 07:06:04;;;;;;;14.05;11.10;;;;;;;8.12;80.49;101555.56;5043552;28;20502;-83
2022/04/29 07:08:31;;;;;;;11.40;10.23;;;;;;;8.24;81.40;101528.81;5042994;28;20737;-82
2022/04/29 07:10:57;;;;;;;12.30;10.33;;;;;;;8.27;80.69;101524.50;5043466;28;20433;-84
2022/04/29 07:13:24;;;;;;;12.00;8.70;;;;;;;8.01;80.76;101518.19;5044344;28;20297;-80
2022/04/29 07:15:50;;;;;;;14.90;8.90;;;;;;;8.17;81.40;101501.88;5041145;28;20260;-80
2022/04/29 07:18:18;;;;;;;15.07;9.37;;;;;;;8.08;81.33;101514.81;5048180;28;20205;-81
2022/04/29 07:20:45;;;;;;;13.07;9.27;;;;;;;8.08;81.43;101504.41;5045237;28;20199;-83
2022/04/29 07:23:11;;;;;;;11.63;9.67;;;;;;;8.31;81.49;101494.19;5039445;28;20711;-83
2022/04/29 07:25:38;;;;;;;12.47;9.97;;;;;;;8.26;80.81;101499.34;5047344;28;20241;-86
2022/04/29 07:28:05;;;;;;;12.97;10.53;;;;;;;8.45;80.36;101505.59;5046741;28;20200;-82
2022/04/29 07:30:31;;;;;;;12.77;10.00;;;;;;;8.59;80.18;101504.81;5046134;28;20220;-82
2022/04/29 07:32:58;;;;;;;12.23;9.60;;;;;;;8.69;79.39;101538.72;5043634;28;20232;-83
2022/04/29 07:43:44;;;;;;;14.37;9.27;;;;;;;8.90;76.97;101616.09;5036636;28;20292;-83
2022/04/29 07:46:11;;;;;;;12.60;11.23;;;;;;;9.00;77.07;101626.56;5038188;28;20964;-83
2022/04/29 07:48:38;;;;;;;12.00;9.83;;;;;;;9.04;76.30;101630.94;5039120;28;20230;-81
2022/04/29 07:51:14;;;;;;;12.57;10.98;;;;;;;9.13;75.88;101651.84;5037834;28;20444;-82
2022/04/29 07:53:51;;;;;;;12.07;10.23;;;;;;;9.17;75.08;101665.75;5066938;28;20278;-84
2022/04/29 07:56:19;;;;;;;12.27;9.03;;;;;;;9.21;75.92;101665.78;5079011;28;20197;-81
2022/04/29 07:59:29;;;;;;;14.60;10.40;;;;;;;8.91;77.50;101636.06;5078648;28;20428;-80
2022/04/29 08:02:11;;;;;;;12.17;9.13;;;;;;;8.98;77.91;101605.75;5077875;28;20197;-83
2022/04/29 08:04:37;;;;;;;13.17;10.83;;;;;;;8.85;79.51;101534.47;5049096;28;20210;-80
2022/04/29 08:07:05;;;;;;;13.57;9.30;;;;;;;9.11;81.65;101482.50;5057970;28;20228;-80
2022/04/29 08:09:32;;;;;;;17.37;10.13;;;;;;;9.27;79.12;101527.72;5056538;28;20682;-79
2022/04/29 08:11:58;;;;;;;13.83;9.77;;;;;;;9.42;76.92;101606.84;5056871;28;20212;-80
2022/04/29 08:14:24;;;;;;;10.73;9.27;;;;;;;9.52;76.29;101632.94;5057914;28;20303;-79
2022/04/29 08:16:51;;;;;;;15.93;9.80;;;;;;;9.48;77.53;101602.53;5057941;28;20278;-78
2022/04/29 08:19:18;;;;;;;15.10;9.40;;;;;;;9.52;77.66;101598.19;5058387;28;20201;-81
2022/04/29 08:21:44;;;;;;;15.40;9.73;;;;;;;9.61;76.58;101616.47;5061665;28;20204;-81
2022/04/29 08:24:13;;;;;;;12.30;10.37;;;;;;;9.65;75.47;101657.34;5077929;28;20776;-80
2022/04/29 08:26:40;;;;;;;13.17;9.40;;;;;;;9.53;75.85;101652.06;5076848;28;20217;-81
2022/04/29 08:29:06;;;;;;;10.70;9.63;;;;;;;9.61;76.08;101657.31;5076913;28;20262;-80
2022/04/29 08:31:34;;;;;;;15.67;9.93;;;;;;;9.71;75.62;101657.38;5076844;28;20737;-80
2022/04/29 08:34:01;;;;;;;15.17;10.07;;;;;;;9.96;79.60;101584.41;5076311;28;20314;-80
2022/04/29 08:36:30;;;;;;;12.50;8.37;;;;;;;10.08;76.68;101594.88;5076852;28;20200;-80
2022/04/29 08:38:57;;;;;;;13.93;9.70;;;;;;;10.04;74.47;101674.00;5075206;28;20243;-81
2022/04/29 08:41:25;;;;;;;13.43;10.13;;;;;;;9.93;73.89;101707.88;5076800;28;20214;-81
2022/04/29 08:43:51;;;;;;;12.60;8.93;;;;;;;9.94;73.92;101688.75;5077930;28;20721;-80
2022/04/29 08:46:21;;;;;;;12.83;9.60;;;;;;;10.12;73.65;101700.13;5078893;28;20228;-80
2022/04/29 08:48:47;;;;;;;12.20;10.20;;;;;;;10.24;72.28;101722.75;5077301;28;20266;-79
2022/04/29 08:51:14;;;;;;;13.40;10.23;;;;;;;10.34;72.08;101746.31;5077306;28;20682;-83
2022/04/29 08:53:41;;;;;;;10.13;9.20;;;;;;;10.47;73.22;101710.69;5063887;28;20224;-81
2022/04/29 08:58:54;;;;;;;12.50;9.13;;;;;;;10.72;72.30;101735.09;5056892;28;20216;-80
2022/04/29 09:01:21;;;;;;;10.43;9.17;;;;;;;10.83;71.63;101749.91;5056151;28;20212;-81
2022/04/29 09:03:48;;;;;;;10.53;9.53;;;;;;;10.87;71.04;101783.00;5056913;28;20256;-80
2022/04/29 09:06:17;;;;;;;15.80;9.43;;;;;;;10.96;71.71;101761.22;5055333;28;20229;-80
2022/04/29 09:08:45;;;;;;;13.67;9.80;;;;;;;10.88;71.17;101782.13;5054256;28;20209;-82
2022/04/29 09:11:12;;;;;;;11.80;10.60;;;;;;;10.96;70.50;101785.63;5054821;28;20263;-80
2022/04/29 09:13:40;;;;;;;15.40;9.53;;;;;;;11.12;70.61;101773.47;5056027;28;20796;-80
2022/04/29 09:16:10;;;;;;;12.43;11.23;;;;;;;11.33;69.60;101810.03;5055584;28;20436;-79
2022/04/29 09:18:39;;;;;;;13.47;10.60;;;;;;;11.35;68.49;101846.63;5067604;28;20199;-78
2022/04/29 09:21:08;;;;;;;12.83;10.50;;;;;;;11.41;68.86;101861.44;5076747;28;20208;-81
2022/04/29 09:23:37;;;;;;;15.43;12.05;;;;;;;11.60;68.20;101850.13;5077132;28;20543;-79
2022/04/29 09:26:05;;;;;;;15.43;10.20;;;;;;;11.63;68.74;101862.31;5078749;28;20315;-80
2022/04/29 09:28:32;;;;;;;16.20;9.47;;;;;;;11.73;67.99;101866.66;5078623;28;20741;-80
2022/04/29 09:30:59;;;;;;;13.27;8.93;;;;;;;11.87;67.25;101880.63;5077856;28;20216;-79
2022/04/29 09:33:28;;;;;;;12.87;9.20;;;;;;;11.95;66.84;101903.31;5076585;28;20228;-80
2022/04/29 09:35:55;;;;;;;12.73;9.17;;;;;;;12.09;66.58;101898.94;5076261;28;20214;-81
2022/04/29 09:41:07;;;;;;;18.73;9.00;;;;;;;12.41;68.17;101848.25;5060176;28;20234;-83
2022/04/29 09:43:35;;;;;;;9.03;8.13;;;;;;;12.50;64.52;101939.88;5080568;22;20232;-80
2022/04/29 09:46:15;;;;;;;9.57;8.53;;;;;;;12.59;64.53;101966.03;5075735;28;20208;-81
2022/04/29 09:48:53;;;;;;;15.93;9.37;;;;;;;12.64;64.95;101959.03;5068337;28;20212;-83
2022/04/29 09:51:44;;;;;;;12.03;9.27;;;;;;;12.66;63.62;102008.81;5077851;28;20263;-80
2022/04/29 09:54:14;;;;;;;10.00;8.97;;;;;;;12.87;63.63;101977.31;5078992;28;20220;-81
2022/04/29 09:56:41;;;;;;;10.20;9.20;;;;;;;12.98;63.56;102010.47;5077532;28;20204;-82
2022/04/29 09:59:08;;;;;;;15.43;10.73;;;;;;;13.09;65.95;101944.00;5075149;28;20212;-81
2022/04/29 10:01:35;;;;;;;10.10;8.40;;;;;;;13.23;64.96;101943.06;5074695;28;20205;-82
2022/04/29 10:04:03;;;;;;;10.27;9.30;;;;;;;13.36;63.47;101975.34;5076094;28;20278;-81
2022/04/29 10:06:33;;;;;;;12.97;9.60;;;;;;;13.44;61.13;102021.66;5045608;28;20308;-81
2022/04/29 10:09:00;;;;;;;15.50;9.37;;;;;;;13.50;62.66;102026.00;5044820;28;20206;-81
2022/04/29 10:11:28;;;;;;;17.43;9.63;;;;;;;13.56;62.10;102027.69;5035321;28;20216;-82
2022/04/29 10:13:56;;;;;;;18.30;10.33;;;;;;;13.42;60.96;102051.38;5035622;28;20230;-81
2022/04/29 10:16:25;;;;;;;17.67;9.80;;;;;;;13.59;62.77;102004.94;5040187;28;20719;-79
2022/04/29 10:21:46;;;;;;;14.07;9.67;;;;;;;13.91;61.15;102048.47;5061772;28;20247;-78
2022/04/29 10:24:12;;;;;;;10.73;9.73;;;;;;;13.99;60.32;102065.03;5052650;28;20283;-77
2022/04/29 10:26:39;;;;;;;10.70;9.27;;;;;;;14.17;60.43;102063.16;5054569;28;20225;-81
2022/04/29 10:29:07;;;;;;;13.23;9.97;;;;;;;14.31;58.44;102113.88;5054323;28;20210;-80
2022/04/29 10:31:33;;;;;;;12.73;9.37;;;;;;;14.37;59.49;102116.44;5056037;28;20275;-78
2022/04/29 10:34:27;;;;;;;10.90;9.77;;;;;;;14.54;58.83;102128.56;5054917;28;20229;-80
2022/04/29 10:36:55;;;;;;;21.43;10.13;;;;;;;14.73;58.83;102129.28;5053611;28;20280;-78
2022/04/29 10:39:23;;;;;;;9.77;8.87;;;;;;;14.90;57.63;102169.44;5053733;28;20212;-79
2022/04/29 10:42:00;;;;;;;11.93;9.30;;;;;;;15.00;57.58;102147.44;5059890;28;20647;-78
2022/04/29 10:44:27;;;;;;;12.80;9.50;;;;;;;15.16;56.65;102171.81;5047120;28;20235;-78
2022/04/29 10:46:54;;;;;;;12.97;10.20;;;;;;;15.26;56.00;102194.53;5043944;28;20283;-79
2022/04/29 10:49:26;;;;;;;11.50;10.50;;;;;;;15.21;54.85;102237.56;5037603;28;20199;-79
2022/04/29 10:51:53;;;;;;;14.63;9.50;;;;;;;15.47;56.98;102206.59;5043012;28;20706;-79
2022/04/29 10:54:50;;;;;;;13.60;8.53;;;;;;;15.79;55.45;102210.63;5066149;28;20221;-79
2022/04/29 10:57:17;;;;;;;10.90;9.50;;;;;;;16.04;54.12;102239.31;5072471;28;20270;-80
2022/04/29 10:59:51;;;;;;;10.00;8.97;;;;;;;16.21;53.65;102308.50;5065681;28;20225;-79
2022/04/29 11:02:29;;;;;;;10.27;9.27;;;;;;;16.37;52.13;102334.63;5064464;28;20265;-78
2022/04/29 11:04:56;;;;;;;12.37;9.07;;;;;;;16.56;52.97;102341.41;5043023;28;20212;-78
2022/04/29 11:07:38;;;;;;;10.77;9.43;;;;;;;16.77;54.13;102295.41;5043210;28;20220;-80
2022/04/29 11:10:08;;;;;;;9.13;7.90;;;;;;;16.97;53.71;102303.06;5041734;28;20194;-78
2022/04/29 11:12:36;;;;;;;10.17;9.00;;;;;;;17.18;51.47;102335.25;5037403;28;20722;-81
2022/04/29 11:15:10;;;;;;;15.93;11.10;;;;;;;17.29;50.03;102414.28;5046417;28;20680;-77
2022/04/29 11:17:37;;;;;;;10.27;9.37;;;;;;;17.31;49.69;102408.09;5044798;28;20239;-80
2022/04/29 11:20:15;;;;;;;11.57;10.47;;;;;;;17.34;48.67;102436.19;5044958;28;20208;-80
2022/04/29 11:25:27;;;;;;;10.33;9.33;;;;;;;17.60;49.14;102441.97;5044202;28;20208;-79
2022/04/29 11:27:53;;;;;;;11.83;9.73;;;;;;;17.78;48.29;102458.38;5048305;28;20231;-79
2022/04/29 11:30:20;;;;;;;10.90;9.97;;;;;;;17.95;48.30;102460.78;5046781;28;20207;-79
2022/04/29 11:32:46;;;;;;;13.20;9.63;;;;;;;18.62;47.70;102448.94;5047020;28;20304;-81
2022/04/29 11:35:13;;;;;;;11.93;8.73;;;;;;;19.41;48.76;102449.91;5047023;28;20262;-81
2022/04/29 11:37:39;;;;;;;10.20;9.30;;;;;;;19.80;44.02;102567.34;5046206;28;20255;-79
2022/04/29 11:40:08;;;;;;;11.47;10.07;;;;;;;20.74;42.42;102664.97;5044230;28;20205;-81
2022/04/29 11:42:36;;;;;;;12.53;10.07;;;;;;;22.02;40.28;102736.66;5045273;28;20221;-80
2022/04/29 11:45:07;;;;;;;10.53;9.67;;;;;;;23.06;38.33;102792.88;5046007;28;20201;-80
2022/04/29 11:47:34;;;;;;;11.10;10.10;;;;;;;20.97;37.25;102890.03;5044521;28;20209;-81
2022/04/29 11:50:01;;;;;;;9.60;8.70;;;;;;;21.86;39.44;102820.50;5044402;28;20250;-81
2022/04/29 11:52:30;;;;;;;10.53;9.53;;;;;;;22.28;38.84;102769.63;5043790;28;20243;-79
2022/04/29 11:54:58;;;;;;;10.97;9.53;;;;;;;22.22;39.67;102778.66;5045500;28;20201;-80